VA33 weather

Beaver Dam Airpark
Surry, Virginia, United States

Public forecast

Using degrees Fahrenheit for public forecast. Weather courtesy of forecast.io.

METAR (pilot weather report)

Closest report is Felker Army Air Field, 9.3 nm (17.2 km) NE. Retrieved 2019/07/21 00:56 UTC (28 minutes ago):

KFAF 210056Z AUTO 23005KT 10SM CLR 32/24 A2986 RMK AO2 SLP115 T03210244 $

TAF (pilot weather forecast)

Forecast is more than 12 hours old.

Closest forecast is Felker Army Air Field, 9.3 nm (17.2 km) NE. Retrieved 2019/07/19 18:18 UTC (1 day ago):

TAF KFAF 191800Z 1918/2024 23009KT 9999 SCT040 SCT200 QNH2987INS TEMPO 1919/1922 VRB12G20KT 9000 -TSRA BKN040CB BECMG 1923/1924 20006KT 9999 FEW040 QNH2983INS TX35/2018Z TN26/2008Z LAST NO AMDS AFT 2003 NEXT 2210